sensor_id;sensor_type;location;lat;lon;timestamp;temperature;humidity
9265;DHT22;4669;49.594;10.958;2022-09-09T04:23:45;16.60;99.90
9265;DHT22;4669;49.594;10.958;2022-09-09T04:28:48;16.70;99.90
9265;DHT22;4669;49.594;10.958;2022-09-09T04:33:53;16.70;99.90
9265;DHT22;4669;49.594;10.958;2022-09-09T04:38:57;16.70;99.90
9265;DHT22;4669;49.594;10.958;2022-09-09T04:44:00;16.70;99.90
9265;DHT22;4669;49.594;10.958;2022-09-09T04:49:02;16.60;99.90
9265;DHT22;4669;49.594;10.958;2022-09-09T04:54:08;16.60;99.90
9265;DHT22;4669;49.594;10.958;2022-09-09T04:59:14;16.60;99.90
9265;DHT22;4669;49.594;10.958;2022-09-09T05:04:20;16.70;99.90
9265;DHT22;4669;49.594;10.958;2022-09-09T05:09:24;16.70;99.90
9265;DHT22;4669;49.594;10.958;2022-09-09T05:14:26;16.70;99.90
9265;DHT22;4669;49.594;10.958;2022-09-09T05:19:28;16.70;99.90
9265;DHT22;4669;49.594;10.958;2022-09-09T05:24:33;16.80;99.90
9265;DHT22;4669;49.594;10.958;2022-09-09T05:29:36;16.80;99.90
9265;DHT22;4669;49.594;10.958;2022-09-09T05:34:40;16.90;99.90
9265;DHT22;4669;49.594;10.958;2022-09-09T05:39:44;16.90;99.90
9265;DHT22;4669;49.594;10.958;2022-09-09T05:44:47;16.90;99.90
9265;DHT22;4669;49.594;10.958;2022-09-09T05:49:49;16.90;99.90
9265;DHT22;4669;49.594;10.958;2022-09-09T05:54:52;17.00;99.90
9265;DHT22;4669;49.594;10.958;2022-09-09T05:59:55;17.00;99.90
9265;DHT22;4669;49.594;10.958;2022-09-09T06:04:58;17.00;99.90
9265;DHT22;4669;49.594;10.958;2022-09-09T06:10:01;17.00;99.90
9265;DHT22;4669;49.594;10.958;2022-09-09T06:15:05;17.00;99.90
9265;DHT22;4669;49.594;10.958;2022-09-09T06:20:08;17.10;99.90
9265;DHT22;4669;49.594;10.958;2022-09-09T06:25:12;17.20;99.90
9265;DHT22;4669;49.594;10.958;2022-09-09T06:30:14;17.20;99.90
9265;DHT22;4669;49.594;10.958;2022-09-09T06:35:18;17.30;99.90
9265;DHT22;4669;49.594;10.958;2022-09-09T06:40:21;17.40;99.90
9265;DHT22;4669;49.594;10.958;2022-09-09T06:45:23;17.40;99.90
9265;DHT22;4669;49.594;10.958;2022-09-09T06:50:30;17.50;99.90
9265;DHT22;4669;49.594;10.958;2022-09-09T06:55:33;17.60;99.90
9265;DHT22;4669;49.594;10.958;2022-09-09T07:00:36;17.70;99.80
9265;DHT22;4669;49.594;10.958;2022-09-09T07:05:38;17.70;99.80
9265;DHT22;4669;49.594;10.958;2022-09-09T07:10:42;17.70;99.60
9265;DHT22;4669;49.594;10.958;2022-09-09T07:15:45;17.80;99.60
9265;DHT22;4669;49.594;10.958;2022-09-09T07:20:53;17.80;99.60
9265;DHT22;4669;49.594;10.958;2022-09-09T07:25:59;17.80;99.70
9265;DHT22;4669;49.594;10.958;2022-09-09T07:31:02;17.80;99.60
9265;DHT22;4669;49.594;10.958;2022-09-09T07:36:07;17.80;99.60
9265;DHT22;4669;49.594;10.958;2022-09-09T07:41:15;17.80;99.40
9265;DHT22;4669;49.594;10.958;2022-09-09T07:46:21;17.90;99.20
9265;DHT22;4669;49.594;10.958;2022-09-09T07:51:26;18.20;98.80
9265;DHT22;4669;49.594;10.958;2022-09-09T07:56:31;18.40;98.50
9265;DHT22;4669;49.594;10.958;2022-09-09T08:01:34;18.40;98.30
9265;DHT22;4669;49.594;10.958;2022-09-09T08:06:41;18.30;98.40
9265;DHT22;4669;49.594;10.958;2022-09-09T08:11:46;18.30;98.60
9265;DHT22;4669;49.594;10.958;2022-09-09T08:16:50;18.30;99.00
9265;DHT22;4669;49.594;10.958;2022-09-09T08:21:56;18.40;99.10
9265;DHT22;4669;49.594;10.958;2022-09-09T08:27:00;18.40;99.00
9265;DHT22;4669;49.594;10.958;2022-09-09T08:32:02;18.50;99.00
9265;DHT22;4669;49.594;10.958;2022-09-09T08:37:05;18.50;98.90
9265;DHT22;4669;49.594;10.958;2022-09-09T08:42:37;18.60;98.40
9265;DHT22;4669;49.594;10.958;2022-09-09T08:47:45;18.60;98.80
9265;DHT22;4669;49.594;10.958;2022-09-09T08:52:59;18.60;99.10
9265;DHT22;4669;49.594;10.958;2022-09-09T08:58:12;18.70;98.90
9265;DHT22;4669;49.594;10.958;2022-09-09T09:03:23;18.90;97.20
9265;DHT22;4669;49.594;10.958;2022-09-09T09:08:33;19.00;97.00
9265;DHT22;4669;49.594;10.958;2022-09-09T09:13:44;19.20;97.10
9265;DHT22;4669;49.594;10.958;2022-09-09T09:18:50;19.40;95.80
9265;DHT22;4669;49.594;10.958;2022-09-09T09:23:56;19.60;94.80
9265;DHT22;4669;49.594;10.958;2022-09-09T09:29:09;19.70;95.00
9265;DHT22;4669;49.594;10.958;2022-09-09T09:34:13;19.70;94.70
9265;DHT22;4669;49.594;10.958;2022-09-09T09:39:24;19.70;94.60
9265;DHT22;4669;49.594;10.958;2022-09-09T09:44:29;20.00;94.50
9265;DHT22;4669;49.594;10.958;2022-09-09T09:49:38;20.00;94.50
9265;DHT22;4669;49.594;10.958;2022-09-09T09:54:41;20.20;94.20
9265;DHT22;4669;49.594;10.958;2022-09-09T09:59:45;20.40;93.90
9265;DHT22;4669;49.594;10.958;2022-09-09T10:05:04;20.40;93.50
9265;DHT22;4669;49.594;10.958;2022-09-09T10:10:14;20.40;93.80
9265;DHT22;4669;49.594;10.958;2022-09-09T10:15:31;20.30;93.70
9265;DHT22;4669;49.594;10.958;2022-09-09T10:20:40;20.30;93.60
9265;DHT22;4669;49.594;10.958;2022-09-09T10:25:58;20.30;93.30
9265;DHT22;4669;49.594;10.958;2022-09-09T10:31:15;20.40;93.60
9265;DHT22;4669;49.594;10.958;2022-09-09T10:36:24;20.70;92.90
9265;DHT22;4669;49.594;10.958;2022-09-09T10:41:40;20.80;92.20
9265;DHT22;4669;49.594;10.958;2022-09-09T10:46:56;20.80;91.70
9265;DHT22;4669;49.594;10.958;2022-09-09T10:52:04;20.90;91.70
9265;DHT22;4669;49.594;10.958;2022-09-09T10:57:15;21.00;91.00
9265;DHT22;4669;49.594;10.958;2022-09-09T11:02:31;21.10;91.30
9265;DHT22;4669;49.594;10.958;2022-09-09T11:07:37;21.30;91.60
9265;DHT22;4669;49.594;10.958;2022-09-09T11:12:42;21.50;91.20
9265;DHT22;4669;49.594;10.958;2022-09-09T11:17:50;21.50;91.00
9265;DHT22;4669;49.594;10.958;2022-09-09T11:22:59;21.70;90.40
9265;DHT22;4669;49.594;10.958;2022-09-09T11:28:15;21.80;90.40
9265;DHT22;4669;49.594;10.958;2022-09-09T11:33:44;22.10;87.70
9265;DHT22;4669;49.594;10.958;2022-09-09T11:38:52;22.10;87.90
9265;DHT22;4669;49.594;10.958;2022-09-09T11:43:54;22.00;85.40
9265;DHT22;4669;49.594;10.958;2022-09-09T11:49:02;21.90;83.40
9265;DHT22;4669;49.594;10.958;2022-09-09T11:54:27;22.10;84.50
9265;DHT22;4669;49.594;10.958;2022-09-09T11:59:31;22.30;82.40
9265;DHT22;4669;49.594;10.958;2022-09-09T12:04:37;22.50;83.60
9265;DHT22;4669;49.594;10.958;2022-09-09T12:09:46;22.50;83.20
9265;DHT22;4669;49.594;10.958;2022-09-09T12:15:02;22.20;83.10
9265;DHT22;4669;49.594;10.958;2022-09-09T12:20:12;22.00;83.20
9265;DHT22;4669;49.594;10.958;2022-09-09T12:25:23;22.00;83.90
9265;DHT22;4669;49.594;10.958;2022-09-09T12:30:31;22.00;82.80
9265;DHT22;4669;49.594;10.958;2022-09-09T12:35:36;22.00;83.50
9265;DHT22;4669;49.594;10.958;2022-09-09T12:40:39;21.90;83.60
9265;DHT22;4669;49.594;10.958;2022-09-09T12:45:41;21.50;85.90
9265;DHT22;4669;49.594;10.958;2022-09-09T12:50:47;20.90;88.30
9265;DHT22;4669;49.594;10.958;2022-09-09T12:55:51;19.90;91.60
9265;DHT22;4669;49.594;10.958;2022-09-09T13:00:55;19.70;93.00
9265;DHT22;4669;49.594;10.958;2022-09-09T13:06:11;18.30;99.90
9265;DHT22;4669;49.594;10.958;2022-09-09T13:11:17;17.40;99.90
9265;DHT22;4669;49.594;10.958;2022-09-09T13:16:23;17.20;99.90
9265;DHT22;4669;49.594;10.958;2022-09-09T13:21:36;17.40;99.90
9265;DHT22;4669;49.594;10.958;2022-09-09T13:26:38;17.60;99.90
9265;DHT22;4669;49.594;10.958;2022-09-09T13:31:41;18.10;99.90
9265;DHT22;4669;49.594;10.958;2022-09-09T13:36:48;18.40;99.90
9265;DHT22;4669;49.594;10.958;2022-09-09T13:41:50;18.60;99.90
9265;DHT22;4669;49.594;10.958;2022-09-09T13:47:01;18.90;99.90
9265;DHT22;4669;49.594;10.958;2022-09-09T13:52:09;19.00;99.70
9265;DHT22;4669;49.594;10.958;2022-09-09T13:57:15;19.10;99.50
9265;DHT22;4669;49.594;10.958;2022-09-09T14:02:18;19.20;99.40
9265;DHT22;4669;49.594;10.958;2022-09-09T14:07:23;19.30;99.50
9265;DHT22;4669;49.594;10.958;2022-09-09T14:12:26;19.40;99.60
9265;DHT22;4669;49.594;10.958;2022-09-09T14:17:28;19.60;99.90
9265;DHT22;4669;49.594;10.958;2022-09-09T14:22:34;19.80;99.90
9265;DHT22;4669;49.594;10.958;2022-09-09T14:27:36;19.90;99.90
9265;DHT22;4669;49.594;10.958;2022-09-09T14:32:40;19.90;99.60
9265;DHT22;4669;49.594;10.958;2022-09-09T14:37:43;20.30;99.70
9265;DHT22;4669;49.594;10.958;2022-09-09T14:42:45;20.80;98.10
9265;DHT22;4669;49.594;10.958;2022-09-09T14:47:47;20.80;97.30
9265;DHT22;4669;49.594;10.958;2022-09-09T14:52:50;20.70;97.50
9265;DHT22;4669;49.594;10.958;2022-09-09T14:57:52;20.60;98.30
9265;DHT22;4669;49.594;10.958;2022-09-09T15:02:54;20.50;99.70
9265;DHT22;4669;49.594;10.958;2022-09-09T15:07:58;20.40;99.70
9265;DHT22;4669;49.594;10.958;2022-09-09T15:13:00;20.50;99.90
9265;DHT22;4669;49.594;10.958;2022-09-09T15:18:02;20.50;99.60
9265;DHT22;4669;49.594;10.958;2022-09-09T15:23:05;20.40;99.90
9265;DHT22;4669;49.594;10.958;2022-09-09T15:28:09;20.40;99.90
9265;DHT22;4669;49.594;10.958;2022-09-09T15:33:13;20.30;99.90
9265;DHT22;4669;49.594;10.958;2022-09-09T15:38:16;20.20;99.40
9265;DHT22;4669;49.594;10.958;2022-09-09T15:43:19;20.10;99.70
9265;DHT22;4669;49.594;10.958;2022-09-09T15:48:30;20.20;99.80
9265;DHT22;4669;49.594;10.958;2022-09-09T15:53:34;20.20;99.90
9265;DHT22;4669;49.594;10.958;2022-09-09T15:58:36;20.50;99.60
9265;DHT22;4669;49.594;10.958;2022-09-09T16:03:40;21.00;97.20
9265;DHT22;4669;49.594;10.958;2022-09-09T16:08:45;21.30;95.10
9265;DHT22;4669;49.594;10.958;2022-09-09T16:13:50;21.30;91.00
9265;DHT22;4669;49.594;10.958;2022-09-09T16:18:54;21.10;90.40
9265;DHT22;4669;49.594;10.958;2022-09-09T16:23:59;21.00;90.50
9265;DHT22;4669;49.594;10.958;2022-09-09T16:29:01;20.90;90.20
9265;DHT22;4669;49.594;10.958;2022-09-09T16:34:03;20.70;90.70
9265;DHT22;4669;49.594;10.958;2022-09-09T16:39:08;20.60;90.80
9265;DHT22;4669;49.594;10.958;2022-09-09T16:44:12;20.50;90.80
9265;DHT22;4669;49.594;10.958;2022-09-09T16:49:14;20.30;91.10
9265;DHT22;4669;49.594;10.958;2022-09-09T16:54:18;20.10;91.40
9265;DHT22;4669;49.594;10.958;2022-09-09T16:59:21;20.00;91.90
9265;DHT22;4669;49.594;10.958;2022-09-09T17:04:26;19.80;93.20
9265;DHT22;4669;49.594;10.958;2022-09-09T17:09:30;19.80;92.30
9265;DHT22;4669;49.594;10.958;2022-09-09T17:14:32;19.60;93.00
9265;DHT22;4669;49.594;10.958;2022-09-09T17:19:34;19.50;92.80
9265;DHT22;4669;49.594;10.958;2022-09-09T17:24:37;19.50;92.50
9265;DHT22;4669;49.594;10.958;2022-09-09T17:29:40;19.40;92.30
9265;DHT22;4669;49.594;10.958;2022-09-09T17:34:43;19.30;92.50
9265;DHT22;4669;49.594;10.958;2022-09-09T17:39:47;19.20;92.90
9265;DHT22;4669;49.594;10.958;2022-09-09T17:44:50;19.20;93.90
9265;DHT22;4669;49.594;10.958;2022-09-09T17:49:52;19.10;94.10
9265;DHT22;4669;49.594;10.958;2022-09-09T17:54:55;19.10;94.80
9265;DHT22;4669;49.594;10.958;2022-09-09T17:59:58;19.20;93.80
9265;DHT22;4669;49.594;10.958;2022-09-09T18:05:00;19.10;93.50
9265;DHT22;4669;49.594;10.958;2022-09-09T18:10:04;19.10;93.60
9265;DHT22;4669;49.594;10.958;2022-09-09T18:15:07;19.00;93.60
9265;DHT22;4669;49.594;10.958;2022-09-09T18:20:09;19.30;93.40
9265;DHT22;4669;49.594;10.958;2022-09-09T18:25:13;19.00;93.20
9265;DHT22;4669;49.594;10.958;2022-09-09T18:30:15;19.00;92.70
9265;DHT22;4669;49.594;10.958;2022-09-09T18:35:17;19.00;93.10
9265;DHT22;4669;49.594;10.958;2022-09-09T18:40:20;18.90;93.60
9265;DHT22;4669;49.594;10.958;2022-09-09T18:45:23;18.70;94.80
9265;DHT22;4669;49.594;10.958;2022-09-09T18:50:25;18.60;95.30
9265;DHT22;4669;49.594;10.958;2022-09-09T18:55:28;18.60;95.80
9265;DHT22;4669;49.594;10.958;2022-09-09T19:00:30;18.60;96.20
9265;DHT22;4669;49.594;10.958;2022-09-09T19:05:33;18.50;96.70
9265;DHT22;4669;49.594;10.958;2022-09-09T19:10:37;18.40;97.10
9265;DHT22;4669;49.594;10.958;2022-09-09T19:15:40;18.30;97.50
9265;DHT22;4669;49.594;10.958;2022-09-09T19:20:42;18.20;98.00
9265;DHT22;4669;49.594;10.958;2022-09-09T19:25:47;18.20;98.90
9265;DHT22;4669;49.594;10.958;2022-09-09T19:30:49;18.20;99.00
9265;DHT22;4669;49.594;10.958;2022-09-09T19:35:56;18.20;98.90
9265;DHT22;4669;49.594;10.958;2022-09-09T19:41:04;18.20;99.30
9265;DHT22;4669;49.594;10.958;2022-09-09T19:46:08;18.20;99.20
9265;DHT22;4669;49.594;10.958;2022-09-09T19:51:13;18.10;99.70
9265;DHT22;4669;49.594;10.958;2022-09-09T19:56:17;18.10;99.40
9265;DHT22;4669;49.594;10.958;2022-09-09T20:01:21;17.90;99.40
9265;DHT22;4669;49.594;10.958;2022-09-09T20:06:25;17.80;99.70
9265;DHT22;4669;49.594;10.958;2022-09-09T20:11:29;17.80;99.50
9265;DHT22;4669;49.594;10.958;2022-09-09T20:16:32;17.80;99.70
9265;DHT22;4669;49.594;10.958;2022-09-09T20:21:35;17.80;99.70
9265;DHT22;4669;49.594;10.958;2022-09-09T20:26:39;17.80;99.80
9265;DHT22;4669;49.594;10.958;2022-09-09T20:31:42;17.80;99.50
9265;DHT22;4669;49.594;10.958;2022-09-09T20:36:45;17.80;99.40
9265;DHT22;4669;49.594;10.958;2022-09-09T20:41:49;17.60;99.90
9265;DHT22;4669;49.594;10.958;2022-09-09T20:46:53;17.50;99.90
9265;DHT22;4669;49.594;10.958;2022-09-09T20:52:00;17.60;99.90
9265;DHT22;4669;49.594;10.958;2022-09-09T20:57:04;17.50;99.90
9265;DHT22;4669;49.594;10.958;2022-09-09T21:02:08;17.40;99.90
9265;DHT22;4669;49.594;10.958;2022-09-09T21:07:10;17.30;99.90
9265;DHT22;4669;49.594;10.958;2022-09-09T21:12:14;17.30;99.90
9265;DHT22;4669;49.594;10.958;2022-09-09T21:17:16;17.30;99.90
9265;DHT22;4669;49.594;10.958;2022-09-09T21:22:19;17.30;99.90
9265;DHT22;4669;49.594;10.958;2022-09-09T21:27:22;17.20;99.90
9265;DHT22;4669;49.594;10.958;2022-09-09T21:32:25;17.30;99.90
9265;DHT22;4669;49.594;10.958;2022-09-09T21:37:27;17.30;99.90
9265;DHT22;4669;49.594;10.958;2022-09-09T21:42:30;17.30;99.90
9265;DHT22;4669;49.594;10.958;2022-09-09T21:47:32;17.40;99.90
9265;DHT22;4669;49.594;10.958;2022-09-09T21:52:34;17.30;99.90
9265;DHT22;4669;49.594;10.958;2022-09-09T21:57:38;17.30;99.90
